Time;durP1;ratioP1;P1;durP2;ratioP2;P2;SDS_P1;SDS_P2;PMS_P1;PMS_P2;Temp;Humidity;BMP_temperature;BMP_pressure;BME280_temperature;BME280_humidity;BME280_pressure;Samples;Min_cycle;Max_cycle;Signal;HPM_P1;HPM_P2
2022/04/24 00:01:00;;;;;;;25.30;20.02;;;8.60;99.90;;;;;;2494749;23;20496;-72
2022/04/24 00:02:00;;;;;;;27.63;21.08;;;8.60;99.90;;;;;;2507386;23;20007;-72
2022/04/24 00:03:02;;;;;;;26.92;21.30;;;8.50;99.90;;;;;;2507346;23;20029;-72
2022/04/24 00:04:02;;;;;;;26.30;21.23;;;8.50;99.90;;;;;;2507190;23;20055;-71
2022/04/24 00:05:04;;;;;;;27.52;21.48;;;8.50;99.90;;;;;;2507461;23;20425;-72
2022/04/24 00:06:05;;;;;;;28.98;21.75;;;8.50;99.90;;;;;;2507465;23;20343;-72
2022/04/24 00:07:09;;;;;;;31.40;23.25;;;8.50;99.90;;;;;;2506949;23;20010;-72
2022/04/24 00:08:09;;;;;;;37.95;26.52;;;8.50;99.90;;;;;;2507257;23;20039;-72
2022/04/24 00:09:10;;;;;;;39.35;25.60;;;8.50;99.90;;;;;;2507113;23;20011;-71
2022/04/24 00:10:11;;;;;;;37.95;25.27;;;8.40;99.90;;;;;;2507164;23;20010;-72
2022/04/24 00:11:11;;;;;;;38.58;25.80;;;8.40;99.90;;;;;;2494763;23;20019;-72
2022/04/24 00:12:18;;;;;;;37.05;25.10;;;8.40;99.90;;;;;;2494756;23;20112;-71
2022/04/24 00:13:19;;;;;;;43.47;27.75;;;8.40;99.90;;;;;;2507495;23;20034;-71
2022/04/24 00:14:19;;;;;;;45.67;28.80;;;8.40;99.90;;;;;;2507315;23;20007;-71
2022/04/24 00:15:20;;;;;;;44.97;29.70;;;8.40;99.90;;;;;;2507383;23;20002;-72
2022/04/24 00:16:21;;;;;;;52.13;32.05;;;8.40;99.90;;;;;;2507312;23;20034;-72
2022/04/24 00:17:22;;;;;;;50.38;31.30;;;8.40;99.90;;;;;;2506968;23;20527;-71
2022/04/24 00:18:22;;;;;;;47.08;30.00;;;8.30;99.90;;;;;;2507344;23;20002;-70
2022/04/24 00:19:23;;;;;;;49.08;30.17;;;8.30;99.90;;;;;;2506871;23;20069;-71
2022/04/24 00:20:23;;;;;;;47.42;30.10;;;8.30;99.90;;;;;;2494526;23;20007;-71
2022/04/24 00:21:24;;;;;;;47.25;29.65;;;8.30;99.90;;;;;;2482972;23;20012;-70
2022/04/24 00:22:25;;;;;;;47.55;29.77;;;8.30;99.90;;;;;;2494643;23;20039;-71
2022/04/24 00:23:25;;;;;;;43.00;28.25;;;8.30;99.90;;;;;;2507312;23;20010;-72
2022/04/24 00:24:26;;;;;;;41.83;27.77;;;8.30;99.90;;;;;;2507299;23;20073;-72
2022/04/24 00:25:27;;;;;;;40.45;26.88;;;8.30;99.90;;;;;;2507406;23;20016;-72
2022/04/24 00:26:27;;;;;;;38.47;25.95;;;8.30;99.90;;;;;;2507234;23;20019;-72
2022/04/24 00:27:28;;;;;;;37.67;25.70;;;8.20;99.90;;;;;;2506985;23;20003;-72
2022/04/24 00:28:29;;;;;;;36.50;26.08;;;8.30;99.90;;;;;;2507385;23;20003;-72
2022/04/24 00:29:29;;;;;;;35.33;25.42;;;8.20;99.90;;;;;;2507301;23;19999;-72
2022/04/24 00:30:30;;;;;;;36.10;25.02;;;8.20;99.90;;;;;;2507136;23;19995;-70
2022/04/24 00:31:31;;;;;;;34.08;24.55;;;8.20;99.90;;;;;;2506891;23;20038;-72
2022/04/24 00:32:31;;;;;;;32.95;24.13;;;8.20;99.90;;;;;;2507311;23;20030;-72
2022/04/24 00:33:32;;;;;;;37.25;25.58;;;8.20;99.90;;;;;;2507340;23;19995;-72
2022/04/24 00:34:33;;;;;;;33.05;24.42;;;8.20;99.90;;;;;;2507243;23;20443;-72
2022/04/24 00:35:33;;;;;;;33.63;24.63;;;8.20;99.90;;;;;;2507145;23;20026;-72
2022/04/24 00:36:34;;;;;;;31.85;23.48;;;8.20;99.90;;;;;;2507491;23;19999;-72
2022/04/24 00:37:34;;;;;;;33.10;24.25;;;8.20;99.90;;;;;;2507127;23;20023;-72
2022/04/24 00:38:35;;;;;;;32.85;24.27;;;8.20;99.90;;;;;;2507115;23;20808;-71
2022/04/24 00:39:36;;;;;;;31.48;23.88;;;8.10;99.90;;;;;;2483155;23;20106;-71
2022/04/24 00:40:36;;;;;;;30.55;23.95;;;8.10;99.90;;;;;;2483168;23;20015;-71
2022/04/24 00:41:47;;;;;;;32.10;24.23;;;8.10;99.90;;;;;;2506879;23;20081;-71
2022/04/24 00:42:48;;;;;;;32.00;24.25;;;8.10;99.90;;;;;;2507520;23;20010;-71
2022/04/24 00:43:52;;;;;;;31.75;24.48;;;8.00;99.90;;;;;;2507433;23;20086;-71
2022/04/24 00:45:11;;;;;;;32.10;24.02;;;8.00;99.90;;;;;;2510548;23;20011;-70
2022/04/24 00:46:42;;;;;;;31.27;23.73;;;8.00;99.90;;;;;;2494749;23;20035;-71
2022/04/24 00:47:42;;;;;;;32.53;24.27;;;8.00;99.90;;;;;;2499964;23;20074;-72
2022/04/24 00:48:44;;;;;;;29.77;23.13;;;7.90;99.90;;;;;;2507235;23;20011;-72
2022/04/24 00:49:45;;;;;;;31.48;23.83;;;7.90;99.90;;;;;;2507397;23;20011;-72
2022/04/24 00:50:46;;;;;;;32.17;23.73;;;7.90;99.90;;;;;;2494368;23;20011;-71
2022/04/24 00:51:47;;;;;;;29.70;24.15;;;7.90;99.90;;;;;;2494655;23;20014;-72
2022/04/24 00:52:48;;;;;;;30.77;23.38;;;7.90;99.90;;;;;;2494882;23;20482;-71
2022/04/24 00:53:49;;;;;;;30.58;23.27;;;7.90;99.90;;;;;;2494811;23;20007;-72
2022/04/24 00:54:51;;;;;;;29.92;23.00;;;7.80;99.90;;;;;;2507305;23;20006;-72
2022/04/24 00:55:52;;;;;;;30.67;24.23;;;7.80;99.90;;;;;;2507196;23;20061;-70
2022/04/24 00:56:53;;;;;;;28.80;22.73;;;7.80;99.90;;;;;;2506964;23;20011;-71
2022/04/24 00:57:53;;;;;;;29.90;22.88;;;7.80;99.90;;;;;;2507398;23;20041;-71
2022/04/24 00:58:54;;;;;;;29.85;23.15;;;7.80;99.90;;;;;;2507387;23;20017;-71
2022/04/24 00:59:54;;;;;;;31.38;23.55;;;7.80;99.90;;;;;;2507098;23;20130;-71
2022/04/24 01:00:56;;;;;;;29.45;23.02;;;7.80;99.90;;;;;;2506967;23;20015;-71
2022/04/24 01:01:57;;;;;;;28.77;22.85;;;7.80;99.90;;;;;;2507297;23;20007;-71
2022/04/24 01:02:59;;;;;;;30.17;22.85;;;7.70;99.90;;;;;;2507182;23;20010;-71
2022/04/24 01:04:01;;;;;;;27.88;22.23;;;7.70;99.90;;;;;;2507026;23;20014;-71
2022/04/24 01:05:02;;;;;;;30.73;22.60;;;7.70;99.90;;;;;;2507185;23;20003;-70
2022/04/24 01:06:03;;;;;;;28.58;22.33;;;7.70;99.90;;;;;;2507151;23;20031;-72
2022/04/24 01:07:04;;;;;;;28.23;22.02;;;7.70;99.90;;;;;;2507028;23;20029;-70
2022/04/24 01:08:04;;;;;;;25.90;21.65;;;7.70;99.90;;;;;;2506355;23;20021;-71
2022/04/24 01:09:10;;;;;;;27.75;21.88;;;7.70;99.90;;;;;;2506366;23;20086;-71
2022/04/24 01:10:10;;;;;;;28.95;21.98;;;7.70;99.90;;;;;;2507060;23;20014;-70
2022/04/24 01:11:11;;;;;;;27.67;21.38;;;7.70;99.90;;;;;;2494372;23;20448;-71
2022/04/24 01:12:12;;;;;;;26.00;21.02;;;7.60;99.90;;;;;;2494397;23;20022;-71
2022/04/24 01:13:12;;;;;;;25.77;20.63;;;7.60;99.90;;;;;;2507155;23;19999;-71
2022/04/24 01:14:16;;;;;;;27.70;21.63;;;7.60;99.90;;;;;;2507452;23;20049;-71
2022/04/24 01:15:17;;;;;;;27.27;20.98;;;7.60;99.90;;;;;;2507275;23;20006;-71
2022/04/24 01:16:17;;;;;;;29.17;21.38;;;7.60;99.90;;;;;;2507514;23;20006;-71
2022/04/24 01:17:18;;;;;;;27.25;21.15;;;7.60;99.90;;;;;;2507206;23;20090;-71
2022/04/24 01:18:19;;;;;;;26.13;21.40;;;7.60;99.90;;;;;;2507563;23;20011;-72
2022/04/24 01:19:20;;;;;;;26.35;21.60;;;7.50;99.90;;;;;;2507460;23;20058;-71
2022/04/24 01:20:21;;;;;;;27.13;20.88;;;7.50;99.90;;;;;;2507273;23;20344;-71
2022/04/24 01:21:22;;;;;;;27.10;21.58;;;7.50;99.90;;;;;;2507500;23;20454;-71
2022/04/24 01:22:22;;;;;;;26.40;21.58;;;7.50;99.90;;;;;;2507456;23;20009;-71
2022/04/24 01:23:23;;;;;;;29.60;22.08;;;7.50;99.90;;;;;;2507418;23;20003;-70
2022/04/24 01:24:26;;;;;;;30.60;22.63;;;7.50;99.90;;;;;;2507419;23;20007;-71
2022/04/24 01:25:27;;;;;;;26.42;21.25;;;7.50;99.90;;;;;;2494593;23;20051;-70
2022/04/24 01:26:28;;;;;;;29.20;22.20;;;7.40;99.90;;;;;;2494764;23;20011;-71
2022/04/24 01:27:28;;;;;;;25.77;21.13;;;7.40;99.90;;;;;;2506884;23;20331;-71
2022/04/24 01:28:29;;;;;;;26.38;21.08;;;7.40;99.90;;;;;;2507211;23;20014;-71
2022/04/24 01:29:30;;;;;;;27.65;21.95;;;7.40;99.90;;;;;;2507316;23;20005;-71
2022/04/24 01:30:30;;;;;;;27.58;21.58;;;7.40;99.90;;;;;;2507305;23;20003;-71
2022/04/24 01:31:32;;;;;;;27.77;21.70;;;7.40;99.90;;;;;;2508020;23;20002;-71
2022/04/24 01:32:34;;;;;;;27.73;21.63;;;7.40;99.90;;;;;;2508152;23;20030;-71
2022/04/24 01:33:34;;;;;;;27.67;22.25;;;7.40;99.90;;;;;;2507245;23;20118;-71
2022/04/24 01:34:35;;;;;;;26.08;21.40;;;7.40;99.90;;;;;;2507179;23;20074;-71
2022/04/24 01:35:35;;;;;;;27.92;22.40;;;7.30;99.90;;;;;;2507051;23;20559;-71
2022/04/24 01:36:36;;;;;;;27.73;22.08;;;7.30;99.90;;;;;;2507431;23;20042;-72
2022/04/24 01:37:37;;;;;;;27.40;21.85;;;7.30;99.90;;;;;;2507332;23;20007;-69
2022/04/24 01:38:37;;;;;;;28.08;22.15;;;7.30;99.90;;;;;;2507734;23;20086;-70
2022/04/24 01:39:38;;;;;;;28.40;22.38;;;7.30;99.90;;;;;;2507891;23;20046;-70
2022/04/24 01:40:38;;;;;;;28.40;22.42;;;7.30;99.90;;;;;;2507846;23;20007;-71
2022/04/24 01:41:39;;;;;;;28.33;22.58;;;7.30;99.90;;;;;;2508198;23;20011;-71
2022/04/24 01:42:40;;;;;;;28.02;21.83;;;7.20;99.90;;;;;;2508060;23;20015;-71
2022/04/24 01:43:42;;;;;;;29.52;22.55;;;7.20;99.90;;;;;;2508229;23;20011;-72
2022/04/24 01:44:42;;;;;;;30.60;23.25;;;7.20;99.90;;;;;;2483585;23;20016;-71
2022/04/24 01:45:43;;;;;;;28.88;22.05;;;7.20;99.90;;;;;;2483797;23;20007;-70
2022/04/24 01:46:43;;;;;;;26.33;21.42;;;7.20;99.90;;;;;;2508310;23;20011;-71
2022/04/24 01:47:44;;;;;;;27.30;21.60;;;7.20;99.90;;;;;;2507802;23;20059;-73
2022/04/24 01:48:45;;;;;;;27.80;21.85;;;7.20;99.90;;;;;;2508046;23;20003;-73
2022/04/24 01:49:45;;;;;;;28.83;22.35;;;7.20;99.90;;;;;;2507921;23;20011;-71
2022/04/24 01:50:46;;;;;;;28.83;22.42;;;7.10;99.90;;;;;;2507858;23;20086;-71
2022/04/24 01:51:48;;;;;;;28.15;22.08;;;7.10;99.90;;;;;;2508068;23;20110;-71
2022/04/24 01:52:49;;;;;;;29.15;22.10;;;7.10;99.90;;;;;;2495365;23;20017;-72
2022/04/24 01:53:49;;;;;;;30.00;23.00;;;7.10;99.90;;;;;;2495215;23;20011;-71
2022/04/24 01:54:50;;;;;;;27.40;22.00;;;7.10;99.90;;;;;;2495180;23;20015;-71
2022/04/24 01:55:50;;;;;;;26.50;21.58;;;7.10;99.90;;;;;;2495291;23;20011;-71
2022/04/24 01:56:51;;;;;;;27.58;22.27;;;7.10;99.90;;;;;;2483218;23;20349;-71
2022/04/24 01:57:51;;;;;;;28.73;22.13;;;7.10;99.90;;;;;;2483582;23;20011;-72
2022/04/24 01:58:52;;;;;;;26.67;21.00;;;7.10;99.90;;;;;;2507919;23;20014;-71
2022/04/24 01:59:53;;;;;;;27.75;21.83;;;7.10;99.90;;;;;;2495209;23;20038;-71
2022/04/24 02:00:54;;;;;;;29.08;22.30;;;7.10;99.90;;;;;;2495289;23;20014;-72
2022/04/24 02:01:54;;;;;;;27.77;22.13;;;7.00;99.90;;;;;;2507894;23;20019;-71
2022/04/24 02:02:55;;;;;;;28.77;21.73;;;7.00;99.90;;;;;;2507949;23;20015;-72
2022/04/24 02:03:56;;;;;;;27.55;21.85;;;7.00;99.90;;;;;;2507468;23;20343;-72
2022/04/24 02:04:56;;;;;;;27.83;22.08;;;7.00;99.90;;;;;;2495257;23;20018;-72
2022/04/24 02:05:57;;;;;;;29.10;22.92;;;7.00;99.90;;;;;;2495544;23;20083;-72
2022/04/24 02:06:58;;;;;;;29.58;22.80;;;7.00;99.90;;;;;;2507714;23;20007;-72
2022/04/24 02:07:58;;;;;;;31.52;23.70;;;7.00;99.90;;;;;;2508006;23;20014;-72
2022/04/24 02:08:59;;;;;;;29.73;23.20;;;7.00;99.90;;;;;;2507783;23;20051;-72
2022/04/24 02:10:00;;;;;;;29.15;22.20;;;6.90;99.90;;;;;;2507621;23;20015;-72
2022/04/24 02:11:02;;;;;;;32.25;23.40;;;6.90;99.90;;;;;;2507843;23;20034;-73
2022/04/24 02:12:03;;;;;;;31.13;23.45;;;6.90;99.90;;;;;;2507821;23;20011;-72
2022/04/24 02:13:04;;;;;;;30.70;23.63;;;6.90;99.90;;;;;;2507759;23;20011;-72
2022/04/24 02:14:05;;;;;;;30.45;24.10;;;6.90;99.90;;;;;;2507928;23;20041;-71
2022/04/24 02:15:08;;;;;;;29.73;23.42;;;6.90;99.90;;;;;;2507824;23;20082;-72
2022/04/24 02:16:09;;;;;;;31.05;23.73;;;6.80;99.90;;;;;;2507077;23;20031;-72
2022/04/24 02:17:09;;;;;;;30.63;23.20;;;6.80;99.90;;;;;;2506912;23;20019;-72
2022/04/24 02:18:10;;;;;;;31.13;23.67;;;6.80;99.90;;;;;;2495327;23;20043;-71
2022/04/24 02:19:10;;;;;;;30.52;23.30;;;6.80;99.90;;;;;;2495371;23;20008;-74
2022/04/24 02:20:11;;;;;;;29.90;23.27;;;6.80;99.90;;;;;;2495074;23;20014;-72
2022/04/24 02:21:13;;;;;;;30.52;23.10;;;6.80;99.90;;;;;;2495574;23;20440;-71
2022/04/24 02:22:14;;;;;;;29.38;22.52;;;6.80;99.90;;;;;;2508001;23;20022;-72
2022/04/24 02:23:14;;;;;;;28.48;22.60;;;6.80;99.90;;;;;;2508272;23;20010;-72
2022/04/24 02:24:15;;;;;;;29.58;23.17;;;6.80;99.90;;;;;;2509119;23;20077;-73
2022/04/24 02:25:17;;;;;;;30.33;23.33;;;6.80;99.90;;;;;;2510160;23;20042;-72
2022/04/24 02:26:17;;;;;;;31.17;24.30;;;6.80;99.90;;;;;;2512060;23;20003;-74
2022/04/24 02:27:18;;;;;;;30.20;23.48;;;6.70;99.90;;;;;;2512875;23;20011;-70
2022/04/24 02:28:19;;;;;;;31.42;23.17;;;6.70;99.90;;;;;;2508015;23;20033;-71
2022/04/24 02:29:19;;;;;;;31.05;23.40;;;6.70;99.90;;;;;;2507582;23;20014;-70
2022/04/24 02:30:26;;;;;;;31.70;23.55;;;6.70;99.90;;;;;;2507508;23;20066;-71
2022/04/24 02:31:26;;;;;;;32.38;24.25;;;6.60;99.90;;;;;;2507754;23;20444;-71
2022/04/24 02:32:27;;;;;;;35.22;25.38;;;6.60;99.90;;;;;;2507896;23;20011;-71
2022/04/24 02:33:27;;;;;;;37.65;26.88;;;6.60;99.90;;;;;;2507799;23;20494;-72
2022/04/24 02:34:28;;;;;;;36.15;26.33;;;6.60;99.90;;;;;;2507584;23;20501;-71
2022/04/24 02:35:30;;;;;;;36.85;26.80;;;6.60;99.90;;;;;;2507621;23;19999;-71
2022/04/24 02:36:30;;;;;;;35.67;25.88;;;6.60;99.90;;;;;;2495133;23;20011;-72
2022/04/24 02:37:32;;;;;;;41.80;29.35;;;6.70;99.90;;;;;;2494662;23;20643;-72
2022/04/24 02:38:32;;;;;;;44.03;29.75;;;6.70;99.90;;;;;;2507531;23;20486;-73
2022/04/24 02:39:33;;;;;;;40.38;28.35;;;6.70;99.90;;;;;;2507745;23;19995;-72
2022/04/24 02:40:34;;;;;;;40.60;27.92;;;6.70;99.90;;;;;;2507546;23;20007;-73
2022/04/24 02:41:35;;;;;;;44.42;30.25;;;6.70;99.90;;;;;;2507660;23;20019;-72
2022/04/24 02:42:36;;;;;;;48.42;31.95;;;6.70;99.90;;;;;;2494809;23;20476;-72
2022/04/24 02:43:37;;;;;;;46.72;31.27;;;6.60;99.90;;;;;;2495195;23;20012;-72
2022/04/24 02:44:37;;;;;;;45.85;31.42;;;6.60;99.90;;;;;;2507604;23;20591;-72
2022/04/24 02:45:40;;;;;;;43.03;29.38;;;6.60;99.90;;;;;;2507532;23;20017;-72
2022/04/24 02:46:40;;;;;;;40.40;28.48;;;6.60;99.90;;;;;;2507689;23;20026;-72
2022/04/24 02:47:41;;;;;;;37.88;26.15;;;6.60;99.90;;;;;;2507539;23;20402;-71
2022/04/24 02:48:42;;;;;;;32.50;25.05;;;6.60;99.90;;;;;;2507652;23;20010;-72
2022/04/24 02:49:42;;;;;;;33.75;24.48;;;6.60;99.90;;;;;;2507330;23;20014;-73
2022/04/24 02:50:43;;;;;;;31.40;23.42;;;6.60;99.90;;;;;;2507491;23;20444;-72
2022/04/24 02:51:44;;;;;;;33.65;24.67;;;6.50;99.90;;;;;;2507665;23;20400;-72
2022/04/24 02:52:49;;;;;;;32.33;24.23;;;6.50;99.90;;;;;;2507617;23;20525;-72
2022/04/24 02:53:49;;;;;;;32.05;24.40;;;6.50;99.90;;;;;;2507660;23;20054;-74
2022/04/24 02:54:50;;;;;;;32.20;23.73;;;6.40;99.90;;;;;;2494881;23;20098;-72
2022/04/24 02:55:50;;;;;;;30.75;23.38;;;6.40;99.90;;;;;;2494943;23;20011;-73
2022/04/24 02:56:51;;;;;;;32.08;23.83;;;6.40;99.90;;;;;;2507861;23;20013;-72
2022/04/24 02:57:53;;;;;;;29.20;22.52;;;6.40;99.90;;;;;;2508821;23;20011;-72
2022/04/24 02:58:53;;;;;;;30.02;23.40;;;6.40;99.90;;;;;;2507674;23;20007;-72
2022/04/24 02:59:55;;;;;;;32.80;23.92;;;6.40;99.90;;;;;;2507547;23;20456;-72
2022/04/24 03:00:56;;;;;;;33.15;24.63;;;6.40;99.90;;;;;;2507338;23;20010;-72
2022/04/24 03:01:57;;;;;;;33.35;24.88;;;6.40;99.90;;;;;;2507620;23;20031;-72
2022/04/24 03:02:58;;;;;;;34.72;25.65;;;6.40;99.90;;;;;;2507625;23;20514;-72
2022/04/24 03:03:58;;;;;;;34.67;24.75;;;6.40;99.90;;;;;;2506674;23;20011;-71
2022/04/24 03:04:59;;;;;;;34.25;25.13;;;6.40;99.90;;;;;;2506722;23;20003;-71
2022/04/24 03:05:59;;;;;;;33.90;25.25;;;6.40;99.90;;;;;;2507517;23;20011;-72
2022/04/24 03:07:00;;;;;;;34.38;25.27;;;6.40;99.90;;;;;;2507428;23;20062;-70
2022/04/24 03:08:01;;;;;;;33.05;24.42;;;6.40;99.90;;;;;;2507631;23;20013;-70
2022/04/24 03:09:02;;;;;;;33.08;24.73;;;6.40;99.90;;;;;;2507533;23;20034;-71
2022/04/24 03:10:02;;;;;;;35.75;25.38;;;6.30;99.90;;;;;;2507310;23;20003;-70
2022/04/24 03:11:03;;;;;;;34.53;25.35;;;6.30;99.90;;;;;;2507455;23;20094;-71
2022/04/24 03:12:04;;;;;;;32.35;24.77;;;6.30;99.90;;;;;;2507584;23;20376;-70
2022/04/24 03:13:04;;;;;;;33.70;24.52;;;6.30;99.90;;;;;;2494936;23;20038;-71
2022/04/24 03:14:05;;;;;;;33.15;25.05;;;6.30;99.90;;;;;;2495053;23;20121;-72
2022/04/24 03:15:07;;;;;;;34.25;25.70;;;6.30;99.90;;;;;;2507667;23;20058;-71
2022/04/24 03:16:08;;;;;;;34.20;24.92;;;6.20;99.90;;;;;;2507529;23;20003;-71
2022/04/24 03:17:09;;;;;;;33.47;25.40;;;6.20;99.90;;;;;;2507373;23;20343;-71
2022/04/24 03:18:09;;;;;;;33.35;25.00;;;6.20;99.90;;;;;;2507912;23;20003;-71
2022/04/24 03:19:10;;;;;;;35.25;25.95;;;6.20;99.90;;;;;;2507625;23;20030;-71
2022/04/24 03:20:12;;;;;;;33.50;24.70;;;6.20;99.90;;;;;;2507310;23;20022;-71
2022/04/24 03:21:13;;;;;;;33.60;25.08;;;6.20;99.90;;;;;;2507684;23;20003;-71
2022/04/24 03:22:13;;;;;;;32.47;24.40;;;6.20;99.90;;;;;;2507618;23;20063;-72
2022/04/24 03:23:14;;;;;;;29.92;23.65;;;6.10;99.90;;;;;;2507701;23;20006;-73
2022/04/24 03:24:14;;;;;;;32.15;24.30;;;6.20;99.90;;;;;;2507684;23;20049;-72
2022/04/24 03:25:15;;;;;;;31.05;23.95;;;6.10;99.90;;;;;;2506661;23;20375;-71
2022/04/24 03:26:16;;;;;;;32.78;25.40;;;6.10;99.90;;;;;;2495005;23;20040;-71
2022/04/24 03:27:16;;;;;;;32.38;25.33;;;6.10;99.90;;;;;;2494531;23;20471;-71
2022/04/24 03:28:17;;;;;;;31.52;24.45;;;6.10;99.90;;;;;;2507526;23;20006;-71
2022/04/24 03:29:18;;;;;;;32.70;25.13;;;6.10;99.90;;;;;;2507539;23;20131;-71
2022/04/24 03:30:19;;;;;;;32.47;25.02;;;6.10;99.90;;;;;;2507707;23;20420;-72
2022/04/24 03:31:19;;;;;;;36.58;25.58;;;6.10;99.90;;;;;;2507506;23;20007;-71
2022/04/24 03:32:20;;;;;;;33.60;24.95;;;6.10;99.90;;;;;;2507936;23;20038;-71
2022/04/24 03:33:21;;;;;;;31.48;24.90;;;6.10;99.90;;;;;;2507798;23;20007;-71
2022/04/24 03:34:21;;;;;;;32.65;25.05;;;6.10;99.90;;;;;;2495334;23;20007;-71
2022/04/24 03:35:22;;;;;;;33.60;25.05;;;6.10;99.90;;;;;;2494926;23;20039;-71
2022/04/24 03:36:22;;;;;;;34.42;25.75;;;6.10;99.90;;;;;;2506737;23;20006;-72
2022/04/24 03:37:23;;;;;;;32.15;25.25;;;6.10;99.90;;;;;;2494435;23;20364;-72
2022/04/24 03:38:23;;;;;;;35.47;26.00;;;6.10;99.90;;;;;;2494655;23;20015;-72
2022/04/24 03:39:24;;;;;;;33.50;26.17;;;6.10;99.90;;;;;;2494745;23;20107;-72
2022/04/24 03:40:25;;;;;;;34.28;26.58;;;6.10;99.90;;;;;;2494543;23;20348;-71
2022/04/24 03:41:25;;;;;;;34.40;26.50;;;6.00;99.90;;;;;;2495037;23;20783;-72
2022/04/24 03:42:26;;;;;;;35.30;26.52;;;6.00;99.90;;;;;;2495816;23;20086;-72
2022/04/24 03:43:27;;;;;;;36.58;27.27;;;6.00;99.90;;;;;;2495666;23;20035;-72
2022/04/24 03:44:28;;;;;;;34.55;26.92;;;6.00;99.90;;;;;;2495374;23;20011;-71
2022/04/24 03:45:29;;;;;;;34.10;26.00;;;6.00;99.90;;;;;;2495437;23;20000;-72
2022/04/24 03:46:29;;;;;;;35.42;26.10;;;6.00;99.90;;;;;;2495449;23;20425;-71
2022/04/24 03:47:30;;;;;;;33.85;24.55;;;6.00;99.90;;;;;;2495355;23;20314;-71
2022/04/24 03:48:31;;;;;;;33.92;24.90;;;6.00;99.90;;;;;;2495709;23;20020;-71
2022/04/24 03:49:32;;;;;;;33.50;25.35;;;6.00;99.90;;;;;;2495610;23;20337;-71
2022/04/24 03:50:33;;;;;;;33.65;25.00;;;6.00;99.90;;;;;;2495484;23;20424;-72
2022/04/24 03:51:33;;;;;;;31.52;24.08;;;6.00;99.90;;;;;;2495642;23;20011;-71
2022/04/24 03:52:34;;;;;;;33.58;25.05;;;6.00;99.90;;;;;;2506511;23;20006;-71
2022/04/24 03:53:34;;;;;;;30.92;24.27;;;6.00;99.90;;;;;;2506727;23;20078;-71
2022/04/24 03:54:35;;;;;;;32.88;25.00;;;6.00;99.90;;;;;;2495306;23;20391;-71
2022/04/24 03:55:36;;;;;;;32.60;24.67;;;6.00;99.90;;;;;;2495633;23;20019;-71
2022/04/24 03:56:36;;;;;;;32.25;24.40;;;6.00;99.90;;;;;;2507035;23;20074;-71
2022/04/24 03:57:37;;;;;;;33.20;24.27;;;6.00;99.90;;;;;;2506823;23;20018;-72
2022/04/24 03:58:38;;;;;;;30.85;23.67;;;6.00;99.90;;;;;;2507129;23;20078;-71
2022/04/24 03:59:39;;;;;;;32.33;23.92;;;6.00;99.90;;;;;;2507231;23;20034;-72
2022/04/24 04:00:39;;;;;;;31.75;23.73;;;6.00;99.90;;;;;;2496035;23;20007;-72
2022/04/24 04:01:40;;;;;;;32.28;24.15;;;6.00;99.90;;;;;;2495822;23;20014;-72
2022/04/24 04:02:47;;;;;;;33.78;25.00;;;6.00;99.90;;;;;;2495552;23;20630;-72
2022/04/24 04:03:49;;;;;;;31.92;24.17;;;6.00;99.90;;;;;;2495587;23;20015;-71
2022/04/24 04:04:50;;;;;;;32.72;24.38;;;6.00;99.90;;;;;;2495237;23;20014;-72
2022/04/24 04:05:50;;;;;;;31.27;23.80;;;6.00;99.90;;;;;;2495391;23;20102;-71
2022/04/24 04:06:51;;;;;;;31.35;23.58;;;6.00;99.90;;;;;;2506319;23;20026;-71
2022/04/24 04:07:52;;;;;;;31.80;24.30;;;6.00;99.90;;;;;;2506826;23;20075;-71
2022/04/24 04:08:52;;;;;;;32.58;24.85;;;6.00;99.90;;;;;;2495478;23;20011;-71
2022/04/24 04:09:55;;;;;;;31.15;24.45;;;6.00;99.90;;;;;;2495437;23;20007;-72
2022/04/24 04:10:55;;;;;;;32.38;24.08;;;6.00;99.90;;;;;;2495528;23;20003;-72
2022/04/24 04:11:56;;;;;;;33.80;25.08;;;6.00;99.90;;;;;;2495877;23;20099;-72
2022/04/24 04:12:57;;;;;;;32.53;24.35;;;6.10;99.90;;;;;;2496138;23;20444;-73
2022/04/24 04:13:58;;;;;;;33.63;24.50;;;6.10;99.90;;;;;;2496357;23;20035;-72
2022/04/24 04:15:03;;;;;;;32.17;24.27;;;6.10;99.90;;;;;;2496602;23;20011;-72
2022/04/24 04:16:03;;;;;;;32.70;24.80;;;6.10;99.90;;;;;;2496599;23;20007;-72
2022/04/24 04:17:05;;;;;;;31.15;24.52;;;6.10;99.90;;;;;;2507173;23;20019;-71
2022/04/24 04:18:05;;;;;;;33.00;24.85;;;6.10;99.90;;;;;;2507610;23;20006;-72
2022/04/24 04:19:06;;;;;;;32.40;24.25;;;6.10;99.90;;;;;;2496462;23;20018;-72
2022/04/24 04:20:11;;;;;;;31.20;23.92;;;6.10;99.90;;;;;;2496156;23;20022;-72
2022/04/24 04:21:11;;;;;;;32.42;24.80;;;6.20;99.90;;;;;;2496615;23;20440;-72
2022/04/24 04:22:12;;;;;;;33.28;24.55;;;6.20;99.90;;;;;;2496485;23;20011;-72
2022/04/24 04:23:12;;;;;;;34.72;25.40;;;6.20;99.90;;;;;;2496678;23;20519;-71
2022/04/24 04:24:13;;;;;;;32.58;25.02;;;6.20;99.90;;;;;;2496158;23;20038;-75
2022/04/24 04:25:14;;;;;;;31.52;24.35;;;6.30;99.90;;;;;;2495971;23;20046;-71
2022/04/24 04:26:17;;;;;;;29.88;23.63;;;6.20;99.90;;;;;;2506694;23;20007;-72
2022/04/24 04:27:18;;;;;;;30.23;23.23;;;6.30;99.90;;;;;;2506039;23;20034;-72
2022/04/24 04:28:19;;;;;;;31.50;23.65;;;6.30;99.90;;;;;;2495526;23;20006;-72
2022/04/24 04:29:19;;;;;;;29.60;23.02;;;6.30;99.90;;;;;;2495538;23;20082;-71
2022/04/24 04:30:20;;;;;;;30.50;23.25;;;6.40;99.90;;;;;;2495366;23;20027;-71
2022/04/24 04:31:21;;;;;;;27.85;22.05;;;6.50;99.90;;;;;;2495469;23;20011;-71
2022/04/24 04:32:21;;;;;;;30.10;22.50;;;6.50;99.90;;;;;;2495340;23;20591;-71
2022/04/24 04:33:22;;;;;;;29.58;22.40;;;6.60;99.90;;;;;;2495427;23;19999;-71
2022/04/24 04:34:22;;;;;;;28.08;21.92;;;6.60;99.90;;;;;;2495562;23;20522;-72
2022/04/24 04:35:23;;;;;;;28.48;21.85;;;6.70;99.90;;;;;;2495472;23;20008;-71
2022/04/24 04:36:24;;;;;;;29.27;22.98;;;6.70;99.90;;;;;;2495507;23;20159;-71
2022/04/24 04:37:25;;;;;;;27.77;21.80;;;6.80;99.90;;;;;;2495206;23;20015;-71
2022/04/24 04:38:25;;;;;;;28.98;22.50;;;6.90;99.90;;;;;;2505982;23;20122;-71
2022/04/24 04:39:26;;;;;;;27.92;21.83;;;6.90;99.90;;;;;;2506475;23;20006;-71
2022/04/24 04:40:27;;;;;;;27.63;22.00;;;7.00;99.90;;;;;;2495283;23;20086;-71
2022/04/24 04:41:28;;;;;;;27.23;21.55;;;7.10;99.90;;;;;;2495540;23;20011;-71
2022/04/24 04:42:28;;;;;;;27.48;21.95;;;7.20;99.90;;;;;;2495579;23;20011;-71
2022/04/24 04:43:29;;;;;;;26.73;21.33;;;7.30;99.90;;;;;;2495460;23;20604;-71
2022/04/24 04:44:30;;;;;;;26.25;20.52;;;7.40;99.90;;;;;;2495084;23;20031;-71
2022/04/24 04:45:31;;;;;;;27.20;21.45;;;7.60;99.90;;;;;;2495495;23;20457;-70
2022/04/24 04:46:31;;;;;;;27.13;21.40;;;7.60;99.90;;;;;;2495496;23;19996;-71
2022/04/24 04:47:32;;;;;;;27.70;21.70;;;7.80;99.90;;;;;;2494965;23;20402;-71
2022/04/24 04:48:34;;;;;;;27.73;21.27;;;7.90;99.90;;;;;;2495545;23;20007;-71
2022/04/24 04:49:34;;;;;;;28.35;21.25;;;8.00;99.90;;;;;;2495538;23;20347;-71
2022/04/24 04:50:35;;;;;;;26.15;20.77;;;8.10;99.90;;;;;;2495299;23;20012;-71
2022/04/24 04:51:35;;;;;;;25.85;21.08;;;8.20;99.90;;;;;;2495402;23;20016;-70
2022/04/24 04:52:36;;;;;;;25.67;20.40;;;8.30;99.90;;;;;;2495534;23;20090;-71
2022/04/24 04:53:37;;;;;;;26.77;19.92;;;8.30;99.90;;;;;;2506859;23;20009;-71
2022/04/24 04:54:40;;;;;;;26.45;20.30;;;8.30;99.90;;;;;;2506694;23;20014;-71
2022/04/24 04:55:40;;;;;;;25.83;21.15;;;8.30;99.90;;;;;;2495755;23;20007;-72
2022/04/24 04:56:41;;;;;;;27.35;21.60;;;8.30;99.90;;;;;;2495821;23;20147;-72
2022/04/24 04:57:42;;;;;;;27.90;21.90;;;8.30;99.90;;;;;;2495235;23;20011;-72
2022/04/24 04:58:42;;;;;;;27.05;20.88;;;8.30;99.90;;;;;;2506491;23;20011;-71
2022/04/24 04:59:43;;;;;;;27.05;21.73;;;8.30;99.90;;;;;;2506512;23;20018;-71
2022/04/24 05:00:43;;;;;;;27.23;21.15;;;8.30;99.90;;;;;;2495303;23;20003;-72
2022/04/24 05:01:44;;;;;;;26.40;20.92;;;8.30;99.90;;;;;;2495343;23;20012;-70
2022/04/24 05:02:44;;;;;;;28.20;22.65;;;8.30;99.90;;;;;;2495202;23;20015;-70
2022/04/24 05:03:45;;;;;;;27.90;22.02;;;8.30;99.90;;;;;;2495320;23;20425;-73
2022/04/24 05:04:46;;;;;;;27.90;21.98;;;8.30;99.90;;;;;;2506117;23;20022;-73
2022/04/24 05:05:46;;;;;;;25.58;21.35;;;8.20;99.90;;;;;;2506753;23;20074;-73
2022/04/24 05:06:47;;;;;;;26.52;21.65;;;8.20;99.90;;;;;;2496148;23;20484;-70
2022/04/24 05:07:47;;;;;;;27.83;21.63;;;8.20;99.90;;;;;;2495799;23;20014;-72
2022/04/24 05:08:48;;;;;;;26.33;21.75;;;8.20;99.90;;;;;;2496133;23;20007;-72
2022/04/24 05:09:49;;;;;;;27.50;21.90;;;8.10;99.90;;;;;;2496141;23;20421;-71
2022/04/24 05:10:49;;;;;;;31.70;24.98;;;8.10;99.90;;;;;;2507090;23;20494;-72
2022/04/24 05:11:50;;;;;;;29.85;24.30;;;8.10;99.90;;;;;;2507357;23;20344;-71
2022/04/24 05:12:51;;;;;;;28.67;22.95;;;8.10;99.90;;;;;;2496365;23;20003;-72
2022/04/24 05:13:51;;;;;;;28.77;23.17;;;8.10;99.90;;;;;;2507376;23;20514;-71